Terminal Aerodrome Forecast
Issued by NWS

Home | Current Version | Previous Version | Text Only | Print | Product List | Glossary On
Versions: 1 2 3 4 5 6 7 8 9 10 11 12
000
FTUS43 KMQT 211734
TAFIWD
TAF
KIWD 211734Z 2118/2218 20013KT P6SM SCT200
     FM220000 20007KT P6SM BKN140
     FM220800 20003KT P6SM SCT008 BKN100
     FM221200 21005KT 5SM BR BKN008
     FM221700 VRB05KT P6SM SCT008=

USA.gov is the U.S. government's official web portal to all federal, state and local government web resources and services.